Time;durP1;ratioP1;P1;durP2;ratioP2;P2;SDS_P1;SDS_P2;PMS_P1;PMS_P2;Temp;Humidity;BMP_temperature;BMP_pressure;BME280_temperature;BME280_humidity;BME280_pressure;Samples;Min_cycle;Max_cycle;Signal;HPM_P1;HPM_P2
2022/08/08 00:01:36;;;;;;;6.25;3.67;;;;;;;14.53;68.67;102175.03;1614301;85;21814;-81
2022/08/08 00:04:11;;;;;;;6.85;3.77;;;;;;;14.58;68.74;102178.77;1668252;84;21613;-81
2022/08/08 00:06:43;;;;;;;5.75;3.40;;;;;;;14.64;68.71;102175.81;1677316;85;21143;-81
2022/08/08 00:09:36;;;;;;;9.23;3.80;;;;;;;14.68;68.72;102177.73;1706887;83;21115;-81
2022/08/08 00:12:08;;;;;;;7.97;3.87;;;;;;;14.74;68.72;102173.94;1696820;83;21127;-80
2022/08/08 00:14:58;;;;;;;6.12;3.85;;;;;;;14.79;68.69;102172.33;1661596;83;21755;-81
2022/08/08 00:17:33;;;;;;;5.97;3.40;;;;;;;14.84;68.66;102168.05;1720328;81;21084;-81
2022/08/08 00:20:03;;;;;;;9.25;3.40;;;;;;;14.88;68.56;102173.91;1733284;81;21080;-81
2022/08/08 00:22:51;;;;;;;5.67;3.15;;;;;;;14.92;68.49;102170.52;1723366;82;21123;-81
2022/08/08 00:25:26;;;;;;;7.10;3.33;;;;;;;14.95;68.45;102163.96;1740927;81;21051;-81
2022/08/08 00:27:56;;;;;;;7.60;3.52;;;;;;;14.94;68.28;102166.56;1716901;82;21828;-81
2022/08/08 00:30:23;;;;;;;7.42;3.75;;;;;;;14.93;68.23;102167.00;1674133;83;21542;-81
2022/08/08 00:33:14;;;;;;;8.60;4.37;;;;;;;14.90;68.19;102161.63;1676409;85;21067;-85
2022/08/08 00:36:10;;;;;;;5.95;3.42;;;;;;;14.87;68.21;102165.50;1677421;84;21615;-86
2022/08/08 00:39:09;;;;;;;8.90;3.67;;;;;;;14.82;68.15;102168.43;1695321;84;21051;-86
2022/08/08 00:42:15;;;;;;;5.47;3.30;;;;;;;14.74;68.12;102161.57;1656977;85;22892;-86
2022/08/08 00:44:58;;;;;;;8.78;3.77;;;;;;;14.66;68.17;102167.08;1674766;85;21695;-86
2022/08/08 00:48:21;;;;;;;6.75;3.05;;;;;;;14.56;68.32;102163.22;1679449;85;21989;-86
2022/08/08 00:51:24;;;;;;;7.37;3.80;;;;;;;14.52;68.38;102168.35;1724641;82;21199;-87
2022/08/08 00:54:28;;;;;;;5.65;3.47;;;;;;;14.35;68.54;102146.19;1707903;82;21071;-87
2022/08/08 00:57:30;;;;;;;4.87;2.95;;;;;;;14.40;68.68;102162.25;1713651;82;22679;-87
2022/08/08 01:00:09;;;;;;;5.78;3.12;;;;;;;14.36;68.70;102155.95;1703282;84;21086;-86
2022/08/08 01:03:16;;;;;;;5.50;3.30;;;;;;;14.30;68.84;102160.14;1705997;82;21047;-86
2022/08/08 01:06:17;;;;;;;7.00;3.60;;;;;;;14.27;68.93;102161.38;1737177;81;21573;-86
2022/08/08 01:09:19;;;;;;;4.85;2.85;;;;;;;14.22;69.07;102159.89;1677811;85;21103;-81
2022/08/08 01:12:00;;;;;;;4.10;2.77;;;;;;;14.20;69.08;102153.65;1699823;82;23098;-81
2022/08/08 01:14:53;;;;;;;9.18;3.33;;;;;;;14.18;69.21;102153.59;1704445;82;21098;-80
2022/08/08 01:17:51;;;;;;;7.28;3.60;;;;;;;14.18;69.18;102155.35;1704680;82;21067;-81
2022/08/08 01:20:41;;;;;;;8.68;3.47;;;;;;;14.15;69.32;102155.23;1706018;82;21129;-80
2022/08/08 01:23:59;;;;;;;5.58;3.00;;;;;;;14.12;69.43;102153.83;1712637;81;21115;-81
2022/08/08 01:26:49;;;;;;;4.85;2.90;;;;;;;14.12;69.59;102150.75;1730411;81;21197;-80
2022/08/08 01:30:02;;;;;;;6.58;3.15;;;;;;;14.15;69.66;102149.94;1731545;81;22147;-81
2022/08/08 01:32:46;;;;;;;9.60;3.25;;;;;;;14.16;69.70;102150.00;1736199;81;21572;-81
2022/08/08 01:35:43;;;;;;;4.78;2.90;;;;;;;14.16;69.78;102148.67;1710127;82;21174;-86
2022/08/08 01:38:43;;;;;;;6.28;3.00;;;;;;;14.18;69.77;102154.91;1728501;82;21085;-86
2022/08/08 01:41:30;;;;;;;5.50;3.10;;;;;;;14.20;69.83;102144.38;1710471;82;21726;-81
2022/08/08 01:44:32;;;;;;;7.50;3.08;;;;;;;14.26;69.88;102137.95;1713238;82;21588;-81
2022/08/08 01:47:13;;;;;;;4.85;3.00;;;;;;;14.34;69.92;102144.41;1709948;81;21074;-81
2022/08/08 01:49:51;;;;;;;4.97;2.67;;;;;;;14.37;69.84;102145.81;1709462;81;21206;-81
2022/08/08 01:52:46;;;;;;;5.55;2.62;;;;;;;14.42;69.85;102149.95;1747343;81;21130;-81
2022/08/08 01:55:27;;;;;;;6.47;2.37;;;;;;;14.47;69.87;102149.67;1709906;82;21713;-81
2022/08/08 01:58:01;;;;;;;4.03;2.83;;;;;;;14.51;69.83;102147.59;1709471;82;21133;-81
2022/08/08 02:00:33;;;;;;;8.20;2.65;;;;;;;14.58;69.88;102146.05;1739740;81;21087;-81
2022/08/08 02:03:30;;;;;;;7.83;2.40;;;;;;;14.66;69.80;102144.55;1750411;81;21060;-82
2022/08/08 02:06:03;;;;;;;4.83;2.62;;;;;;;14.73;69.74;102141.64;1736363;81;21451;-80
2022/08/08 02:09:04;;;;;;;6.10;2.60;;;;;;;14.77;69.67;102147.09;1728039;81;21833;-81
2022/08/08 02:11:39;;;;;;;4.22;2.50;;;;;;;14.84;69.69;102139.32;1730355;82;21655;-81
2022/08/08 02:14:50;;;;;;;3.65;2.20;;;;;;;14.90;69.61;102149.70;1709093;82;21628;-81
2022/08/08 02:17:28;;;;;;;4.97;2.67;;;;;;;14.93;69.53;102147.11;1729575;81;21290;-81
2022/08/08 02:20:30;;;;;;;4.30;2.90;;;;;;;14.95;69.53;102148.48;1716857;81;21141;-82
2022/08/08 02:23:24;;;;;;;5.45;2.70;;;;;;;14.99;69.50;102150.80;1727671;81;21996;-81
2022/08/08 02:26:09;;;;;;;6.92;2.58;;;;;;;15.00;69.45;102149.93;1674753;84;21017;-81
2022/08/08 02:29:02;;;;;;;6.35;2.55;;;;;;;15.05;69.46;102148.33;1734627;81;21074;-81
2022/08/08 02:32:07;;;;;;;6.40;2.70;;;;;;;15.09;69.45;102147.15;1730122;82;21079;-81
2022/08/08 02:35:03;;;;;;;6.55;2.62;;;;;;;15.13;69.36;102142.83;1717038;82;21535;-81
2022/08/08 02:37:47;;;;;;;7.62;2.67;;;;;;;15.14;69.32;102145.50;1721468;82;22584;-80
2022/08/08 02:40:21;;;;;;;6.12;3.22;;;;;;;15.18;69.42;102155.77;1695780;84;21067;-81
2022/08/08 02:43:27;;;;;;;6.65;2.98;;;;;;;15.23;69.34;102147.97;1685905;84;21052;-81
2022/08/08 02:46:36;;;;;;;4.87;2.70;;;;;;;15.25;69.33;102148.47;1703566;83;21116;-81
2022/08/08 02:49:42;;;;;;;5.67;3.00;;;;;;;15.27;69.25;102154.70;1673924;84;21668;-81
2022/08/08 02:52:33;;;;;;;4.22;2.60;;;;;;;15.26;69.19;102155.58;1668524;84;21761;-80
2022/08/08 02:55:37;;;;;;;5.03;2.62;;;;;;;15.27;69.17;102157.80;1689698;84;21047;-81
2022/08/08 02:58:43;;;;;;;5.72;2.50;;;;;;;15.24;69.15;102156.38;1666856;85;21071;-81
2022/08/08 03:01:34;;;;;;;6.70;2.35;;;;;;;15.23;69.16;102159.47;1719644;82;21345;-80
2022/08/08 03:04:35;;;;;;;7.60;2.92;;;;;;;15.23;69.20;102166.09;1713501;82;21126;-80
2022/08/08 03:07:25;;;;;;;6.70;2.40;;;;;;;15.21;69.11;102163.83;1681631;82;21793;-80
2022/08/08 03:10:42;;;;;;;6.80;2.50;;;;;;;15.17;69.18;102157.97;1720857;82;21055;-80
2022/08/08 03:13:57;;;;;;;8.43;2.40;;;;;;;15.18;69.21;102154.88;1677261;84;21119;-80
2022/08/08 03:17:01;;;;;;;6.83;2.40;;;;;;;15.16;69.20;102153.51;1655559;85;21185;-80
2022/08/08 03:20:05;;;;;;;3.42;2.20;;;;;;;15.16;69.21;102149.13;1670839;84;21115;-80
2022/08/08 03:22:34;;;;;;;6.80;2.67;;;;;;;15.15;69.20;102150.41;1740257;81;21774;-80
2022/08/08 03:25:04;;;;;;;6.95;2.92;;;;;;;15.11;69.33;102149.41;1717074;81;21429;-81
2022/08/08 03:27:57;;;;;;;4.97;2.62;;;;;;;15.12;69.32;102149.87;1724128;82;21154;-81
2022/08/08 03:30:24;;;;;;;10.18;3.20;;;;;;;15.12;69.33;102158.27;1648319;82;21203;-81
2022/08/08 03:35:39;;;;;;;4.55;2.75;;;;;;;15.12;69.43;102164.89;1717654;82;21813;-81
2022/08/08 03:38:07;;;;;;;5.70;2.85;;;;;;;15.10;69.46;102162.19;1719534;82;21645;-81
2022/08/08 03:40:33;;;;;;;4.10;2.65;;;;;;;15.09;69.47;102164.38;1717882;82;21123;-81
2022/08/08 03:43:00;;;;;;;9.95;3.10;;;;;;;15.15;69.60;102159.25;1739686;82;21138;-81
2022/08/08 03:45:28;;;;;;;6.80;2.77;;;;;;;15.23;69.58;102161.23;1693811;84;21051;-81
2022/08/08 03:48:02;;;;;;;3.87;2.00;;;;;;;15.32;69.52;102165.03;1645946;85;21771;-80
2022/08/08 03:50:29;;;;;;;6.50;2.35;;;;;;;15.40;69.48;102166.57;1704478;82;21068;-81
2022/08/08 03:52:56;;;;;;;5.95;2.22;;;;;;;15.52;69.39;102168.25;1673448;85;21143;-81
2022/08/08 03:55:23;;;;;;;5.15;2.27;;;;;;;15.73;69.57;102168.36;1729313;82;21649;-81
2022/08/08 03:57:54;;;;;;;4.42;2.62;;;;;;;15.91;69.19;102166.19;1706917;82;21067;-81
2022/08/08 04:00:26;;;;;;;4.60;2.15;;;;;;;16.00;68.90;102172.61;1727271;82;21755;-81
2022/08/08 04:03:00;;;;;;;4.87;2.33;;;;;;;16.09;68.83;102174.17;1734355;82;21130;-81
2022/08/08 04:05:31;;;;;;;5.65;2.62;;;;;;;16.19;68.72;102168.22;1725489;82;21063;-81
2022/08/08 04:07:58;;;;;;;4.70;2.25;;;;;;;16.30;68.56;102172.47;1736255;82;22353;-81
2022/08/08 04:10:27;;;;;;;4.12;2.33;;;;;;;16.46;68.52;102173.72;1735825;82;22360;-81
2022/08/08 04:12:55;;;;;;;5.55;2.72;;;;;;;16.78;68.51;102174.48;1738853;82;21780;-87
2022/08/08 04:15:23;;;;;;;5.22;2.40;;;;;;;17.05;68.23;102178.19;1704384;84;21055;-87
2022/08/08 04:17:50;;;;;;;4.47;2.17;;;;;;;17.35;68.01;102177.47;1663135;85;21086;-87
2022/08/08 04:20:17;;;;;;;8.58;2.55;;;;;;;18.35;69.06;102180.59;1694031;84;21275;-86
2022/08/08 04:22:44;;;;;;;2.62;2.02;;;;;;;20.13;69.18;102177.90;1683028;84;21039;-87
2022/08/08 04:25:10;;;;;;;5.87;2.35;;;;;;;21.52;66.80;102180.93;1671866;85;21244;-89
2022/08/08 04:27:37;;;;;;;2.98;2.05;;;;;;;22.79;65.17;102162.59;1676510;84;21083;-88
2022/08/08 04:30:11;;;;;;;6.08;1.85;;;;;;;23.99;62.77;102171.83;1690666;84;21278;-91
2022/08/08 04:32:37;;;;;;;5.75;1.95;;;;;;;24.86;60.92;102175.46;1675381;84;21055;-89
2022/08/08 04:35:05;;;;;;;7.90;1.92;;;;;;;25.95;59.75;102173.09;1670378;83;21575;-90
2022/08/08 04:37:32;;;;;;;3.98;1.90;;;;;;;27.14;57.88;102171.73;1658269;84;21782;-83
2022/08/08 04:39:59;;;;;;;3.62;1.82;;;;;;;27.40;55.39;102169.84;1667990;85;21371;-84
2022/08/08 04:42:27;;;;;;;4.72;1.82;;;;;;;26.93;53.18;102174.00;1666987;85;21138;-82
2022/08/08 04:44:56;;;;;;;3.05;1.82;;;;;;;26.02;52.25;102169.84;1662791;85;21624;-81
2022/08/08 04:47:23;;;;;;;7.45;1.87;;;;;;;25.20;52.25;102177.27;1663523;85;21116;-86
2022/08/08 04:49:49;;;;;;;7.22;1.92;;;;;;;24.57;52.32;102171.30;1663329;85;21759;-82
2022/08/08 04:52:16;;;;;;;3.30;1.90;;;;;;;24.04;52.25;102179.39;1658845;85;21107;-82
2022/08/08 04:54:43;;;;;;;4.85;1.57;;;;;;;23.58;52.42;102180.59;1674621;85;21071;-83
2022/08/08 04:57:23;;;;;;;10.28;1.55;;;;;;;23.16;52.37;102175.00;1676334;85;21592;-88
2022/08/08 04:59:53;;;;;;;4.12;1.70;;;;;;;22.86;52.70;102183.58;1676340;85;21138;-87
2022/08/08 05:02:20;;;;;;;4.12;1.72;;;;;;;22.67;52.84;102181.40;1657102;85;21767;-83
2022/08/08 05:04:47;;;;;;;4.08;1.95;;;;;;;22.47;52.93;102186.37;1661361;84;21139;-82
2022/08/08 05:07:14;;;;;;;7.50;1.98;;;;;;;22.36;53.06;102182.81;1660458;85;21102;-84
2022/08/08 05:09:40;;;;;;;5.75;1.60;;;;;;;22.43;53.20;102186.36;1648251;85;21194;-83
2022/08/08 05:12:07;;;;;;;3.65;1.87;;;;;;;22.65;53.15;102182.73;1657383;85;21723;-82
2022/08/08 05:14:42;;;;;;;7.08;1.75;;;;;;;22.64;52.60;102180.97;1682453;84;21754;-91
2022/08/08 05:17:09;;;;;;;6.28;2.12;;;;;;;22.51;52.52;102191.28;1648495;86;21059;-91
2022/08/08 05:19:36;;;;;;;3.87;1.80;;;;;;;22.35;52.50;102185.48;1645031;86;21057;-91
2022/08/08 05:22:05;;;;;;;8.18;1.60;;;;;;;22.17;52.65;102181.90;1652195;85;21273;-91
2022/08/08 05:24:46;;;;;;;3.30;1.90;;;;;;;22.17;52.65;102181.90;1662515;86;21058;-91
2022/08/08 05:27:22;;;;;;;4.42;1.75;;;;;;;22.09;52.47;102185.92;1662805;86;21785;-90
2022/08/08 05:29:49;;;;;;;3.40;1.65;;;;;;;21.98;52.48;102185.45;1662612;86;21082;-90
2022/08/08 05:32:16;;;;;;;5.62;1.95;;;;;;;21.97;52.61;102184.56;1662720;86;21046;-90
2022/08/08 05:35:25;;;;;;;2.42;1.55;;;;;;;22.03;52.55;102187.70;1662955;86;21513;-90
2022/08/08 05:37:59;;;;;;;5.80;2.00;;;;;;;22.05;52.61;102188.13;1662980;85;21500;-90
2022/08/08 05:40:28;;;;;;;7.87;1.95;;;;;;;22.15;52.51;102194.42;1662431;86;22557;-90
2022/08/08 05:42:58;;;;;;;4.55;1.50;;;;;;;22.09;52.28;102194.39;1676898;84;21100;-91
2022/08/08 05:45:50;;;;;;;4.70;1.70;;;;;;;21.97;52.21;102185.91;1690655;84;21108;-89
2022/08/08 05:48:32;;;;;;;7.78;1.60;;;;;;;21.96;52.35;102201.98;1690526;84;21210;-90
2022/08/08 05:51:01;;;;;;;7.53;2.08;;;;;;;21.89;52.10;102201.10;1690663;84;21096;-90
2022/08/08 05:53:28;;;;;;;5.55;2.30;;;;;;;21.76;52.34;102205.55;1690484;84;22595;-92
2022/08/08 05:55:58;;;;;;;6.08;1.98;;;;;;;21.76;52.34;102205.55;1687963;83;21038;-90
2022/08/08 05:58:34;;;;;;;4.35;1.80;;;;;;;21.74;52.17;102201.52;1704330;83;21089;-91
2022/08/08 06:01:01;;;;;;;4.60;1.60;;;;;;;21.77;52.18;102210.00;1704965;83;21623;-84
2022/08/08 06:03:29;;;;;;;5.25;1.85;;;;;;;21.82;52.04;102208.23;1697608;83;21090;-83
2022/08/08 06:06:05;;;;;;;5.70;1.87;;;;;;;21.85;51.86;102209.59;1687083;84;21786;-83
2022/08/08 06:08:30;;;;;;;;;;;;;;;21.93;51.77;102205.57;1698189;83;21160;-83
2022/08/08 06:10:58;;;;;;;6.62;1.80;;;;;;;21.94;51.63;102216.30;1686747;84;20222;-91
2022/08/08 06:13:37;;;;;;;5.35;2.12;;;;;;;21.94;51.63;102216.30;1682192;84;21104;-91
2022/08/08 06:16:52;;;;;;;4.37;2.00;;;;;;;21.79;51.22;102216.28;1686224;84;21099;-90
2022/08/08 06:19:18;;;;;;;3.62;1.85;;;;;;;21.79;51.22;102216.28;1663910;84;22606;-82
2022/08/08 06:21:58;;;;;;;7.20;2.10;;;;;;;21.53;51.08;102193.00;1680395;84;21388;-90
2022/08/08 06:24:30;;;;;;;3.62;1.60;;;;;;;21.50;51.13;102202.35;1661678;85;21693;-83
2022/08/08 06:27:04;;;;;;;4.30;1.55;;;;;;;21.52;50.91;102213.97;1652858;84;21616;-83
2022/08/08 06:29:47;;;;;;;4.72;1.67;;;;;;;21.47;50.90;102217.52;1642697;84;21166;-82
2022/08/08 06:32:16;;;;;;;4.07;1.63;;;;;;;21.49;51.08;102217.08;1633805;84;21808;-83
2022/08/08 06:34:45;;;;;;;4.28;1.55;;;;;;;21.51;51.20;102220.66;1646802;84;21997;-81
2022/08/08 06:37:13;;;;;;;2.60;1.60;;;;;;;21.50;51.09;102223.78;1659115;84;21154;-81
2022/08/08 06:39:47;;;;;;;2.65;1.40;;;;;;;21.52;51.19;102227.81;1649568;84;21209;-90
2022/08/08 06:42:57;;;;;;;4.67;1.40;;;;;;;21.55;51.05;102227.84;1648482;86;21105;-91
2022/08/08 06:45:24;;;;;;;5.05;1.72;;;;;;;21.55;50.87;102231.86;1654088;85;22386;-82
2022/08/08 06:47:51;;;;;;;6.05;1.60;;;;;;;21.67;51.01;102230.98;1629890;85;21099;-81
2022/08/08 06:50:18;;;;;;;10.23;1.47;;;;;;;21.67;51.01;102230.98;1644297;85;21626;-82
2022/08/08 06:52:45;;;;;;;9.30;1.77;;;;;;;21.84;50.74;102235.92;1664405;84;21169;-81
2022/08/08 06:55:11;;;;;;;4.90;1.67;;;;;;;21.84;50.74;102235.92;1664571;84;21084;-81
2022/08/08 06:57:38;;;;;;;4.97;1.60;;;;;;;21.88;50.72;102236.38;1656584;84;22807;-81
2022/08/08 07:00:07;;;;;;;4.40;1.60;;;;;;;21.94;50.68;102238.17;1656744;85;21098;-81
2022/08/08 07:02:34;;;;;;;7.35;1.80;;;;;;;22.02;50.64;102235.08;1701496;82;21182;-88
2022/08/08 07:05:09;;;;;;;4.15;1.32;;;;;;;22.12;50.47;102234.63;1703478;82;21107;-81
2022/08/08 07:08:16;;;;;;;6.85;2.40;;;;;;;22.24;50.26;102238.67;1703427;81;21132;-81
2022/08/08 07:10:47;;;;;;;10.82;4.80;;;;;;;22.36;50.05;102239.14;1708935;82;21776;-81
2022/08/08 07:13:19;;;;;;;5.20;2.92;;;;;;;22.44;50.06;102237.80;1657626;85;21066;-90
2022/08/08 07:15:52;;;;;;;11.68;2.37;;;;;;;22.56;50.17;102236.46;1671822;85;21070;-91
2022/08/08 07:19:01;;;;;;;5.87;2.47;;;;;;;22.65;49.70;102240.44;1657891;84;21114;-82
2022/08/08 07:21:42;;;;;;;3.70;2.00;;;;;;;22.61;49.72;102237.32;1625430;87;21093;-80
2022/08/08 07:24:25;;;;;;;6.17;1.80;;;;;;;22.68;49.63;102239.11;1622468;85;21767;-81
2022/08/08 07:26:59;;;;;;;5.85;2.20;;;;;;;22.71;49.54;102239.54;1639745;85;21091;-89
2022/08/08 07:29:39;;;;;;;7.37;2.95;;;;;;;22.79;49.27;102243.13;1668462;85;21112;-90
2022/08/08 07:32:07;;;;;;;7.00;1.70;;;;;;;22.70;49.07;102243.14;1660810;84;21269;-82
2022/08/08 07:34:34;;;;;;;6.78;2.30;;;;;;;22.76;49.43;102243.12;1660115;86;21069;-82
2022/08/08 07:37:04;;;;;;;5.00;1.50;;;;;;;22.94;49.26;102241.28;1639883;86;22561;-81
2022/08/08 07:39:50;;;;;;;8.18;2.00;;;;;;;22.95;48.88;102243.97;1665669;85;21732;-90
2022/08/08 07:42:17;;;;;;;8.73;2.02;;;;;;;23.01;48.86;102242.63;1659158;86;21131;-81
2022/08/08 07:44:44;;;;;;;9.30;2.47;;;;;;;23.20;48.86;102246.18;1668021;84;21085;-91
2022/08/08 07:47:25;;;;;;;3.35;1.62;;;;;;;23.24;48.57;102248.41;1716795;82;21115;-90
2022/08/08 07:49:52;;;;;;;6.65;1.67;;;;;;;23.24;48.43;102246.60;1735966;82;21764;-90
2022/08/08 07:52:20;;;;;;;4.53;2.20;;;;;;;23.25;48.45;102245.69;1694445;83;49630;-89
2022/08/08 07:55:17;;;;;;;4.75;2.60;;;;;;;23.26;48.37;102245.27;1706426;84;21090;-90
2022/08/08 07:58:05;;;;;;;5.22;1.70;;;;;;;23.33;48.08;102248.38;1683417;84;21869;-90
2022/08/08 08:01:19;;;;;;;5.30;1.65;;;;;;;23.41;48.20;102246.53;1706407;83;21545;-91
2022/08/08 08:03:49;;;;;;;5.12;1.50;;;;;;;23.53;47.95;102247.37;1668469;84;21818;-81
2022/08/08 08:06:15;;;;;;;4.92;1.57;;;;;;;23.58;47.63;102252.28;1692314;82;21037;-81
2022/08/08 08:09:02;;;;;;;7.08;1.70;;;;;;;23.63;47.42;102251.36;1693491;82;21565;-81
2022/08/08 08:11:29;;;;;;;7.20;1.72;;;;;;;23.80;47.38;102254.41;1703249;82;21045;-81
2022/08/08 08:14:11;;;;;;;7.90;1.80;;;;;;;23.99;47.13;102252.52;1696142;82;21049;-81
2022/08/08 08:16:40;;;;;;;5.62;1.27;;;;;;;24.15;47.00;102262.70;1703756;82;21954;-81
2022/08/08 08:19:11;;;;;;;7.65;1.65;;;;;;;24.37;46.94;102261.63;1707202;82;21678;-80
2022/08/08 08:21:42;;;;;;;7.28;1.70;;;;;;;24.52;46.75;102256.59;1654121;84;21038;-89
2022/08/08 08:24:09;;;;;;;7.00;1.55;;;;;;;24.67;46.50;102258.25;1706038;82;21059;-88
2022/08/08 08:26:45;;;;;;;5.30;1.90;;;;;;;24.79;46.23;102258.11;1726929;83;21047;-88
2022/08/08 08:29:12;;;;;;;3.87;1.67;;;;;;;25.00;46.10;102262.41;1719865;82;21187;-90
2022/08/08 08:31:38;;;;;;;10.40;1.32;;;;;;;25.29;45.88;102255.80;1722559;81;21052;-90
2022/08/08 08:34:05;;;;;;;5.60;2.50;;;;;;;25.42;45.28;102261.93;1721138;83;21076;-90
2022/08/08 08:36:32;;;;;;;7.33;2.05;;;;;;;25.42;44.60;102257.89;1676263;85;21072;-90
2022/08/08 08:38:59;;;;;;;5.15;2.15;;;;;;;25.36;44.61;102260.20;1671883;84;21060;-88
2022/08/08 08:41:26;;;;;;;3.47;1.87;;;;;;;25.43;44.22;102261.47;1674484;84;21761;-82
2022/08/08 08:43:52;;;;;;;6.92;2.72;;;;;;;25.33;44.00;102260.23;1651440;84;21178;-85
2022/08/08 08:46:19;;;;;;;12.65;3.33;;;;;;;25.34;44.06;102259.34;1662689;85;21075;-82
2022/08/08 08:48:46;;;;;;;7.83;1.37;;;;;;;25.31;43.76;102260.71;1657893;85;21040;-84
2022/08/08 08:51:14;;;;;;;9.08;2.15;;;;;;;25.16;43.55;102261.75;1653885;86;21432;-84
2022/08/08 08:53:50;;;;;;;7.58;1.30;;;;;;;24.99;43.28;102259.25;1661345;85;22554;-85
2022/08/08 08:56:23;;;;;;;4.22;1.50;;;;;;;24.75;43.30;102264.91;1642935;85;21126;-84
2022/08/08 08:58:52;;;;;;;4.67;1.27;;;;;;;24.72;43.53;102258.19;1669210;85;21095;-83
2022/08/08 09:01:23;;;;;;;8.88;3.75;;;;;;;24.77;43.46;102260.39;1662577;85;21138;-83
2022/08/08 09:03:50;;;;;;;6.70;3.40;;;;;;;24.84;43.44;102254.92;1656928;86;21167;-81
2022/08/08 09:06:25;;;;;;;7.70;1.95;;;;;;;24.88;43.05;102254.91;1658121;85;23106;-81
2022/08/08 09:09:06;;;;;;;6.58;1.70;;;;;;;24.79;42.47;102255.41;1653385;85;21088;-81
2022/08/08 09:11:34;;;;;;;6.60;1.65;;;;;;;24.80;42.24;102254.52;1668476;84;21052;-92
2022/08/08 09:14:01;;;;;;;15.25;2.75;;;;;;;24.86;42.32;102251.34;1669089;85;21080;-91
2022/08/08 09:16:30;;;;;;;10.20;2.20;;;;;;;24.98;41.93;102247.14;1669678;85;21815;-91
2022/08/08 09:18:58;;;;;;;4.20;1.37;;;;;;;25.12;41.97;102250.58;1657834;85;21771;-91
2022/08/08 09:21:25;;;;;;;2.85;1.52;;;;;;;25.44;41.86;102248.44;1663645;85;21071;-82
2022/08/08 09:23:53;;;;;;;5.90;1.70;;;;;;;25.79;41.73;102250.19;1684537;84;21152;-91
2022/08/08 09:26:47;;;;;;;4.25;2.15;;;;;;;25.98;40.77;102252.64;1683797;84;21636;-81
2022/08/08 09:29:22;;;;;;;4.30;2.42;;;;;;;26.14;40.34;102251.92;1684484;85;21008;-92
2022/08/08 09:32:16;;;;;;;7.92;2.00;;;;;;;26.24;39.82;102249.95;1672119;85;21771;-92
2022/08/08 09:34:43;;;;;;;;;;;;;;;26.27;39.29;102237.77;1679657;84;21020;-91
2022/08/08 09:37:26;;;;;;;13.88;1.98;;;;;;;26.12;39.52;102248.36;1685538;85;20169;-90
2022/08/08 09:40:07;;;;;;;6.28;2.12;;;;;;;26.17;39.58;102252.77;1662135;84;21095;-81
2022/08/08 09:42:37;;;;;;;6.37;2.10;;;;;;;26.20;39.58;102247.77;1657894;85;21132;-81
2022/08/08 09:45:22;;;;;;;7.67;2.12;;;;;;;26.13;39.31;102249.69;1662017;85;21969;-81
2022/08/08 09:47:49;;;;;;;11.65;2.20;;;;;;;26.08;39.36;102247.52;1670542;84;21102;-80
2022/08/08 09:50:18;;;;;;;9.58;2.52;;;;;;;26.00;39.44;102245.41;1673670;84;21111;-81
2022/08/08 09:52:53;;;;;;;10.18;2.50;;;;;;;25.79;39.10;102246.60;1662748;85;21653;-89
2022/08/08 09:55:32;;;;;;;10.65;3.00;;;;;;;25.36;39.49;102251.23;1680045;85;21052;-89
2022/08/08 09:58:15;;;;;;;5.75;2.62;;;;;;;25.02;39.99;102244.88;1683085;85;22709;-89
2022/08/08 10:00:43;;;;;;;4.90;2.35;;;;;;;24.84;40.49;102248.19;1684150;83;21043;-90
2022/08/08 10:03:15;;;;;;;6.22;2.60;;;;;;;24.82;40.47;102250.47;1682865;85;21055;-91
2022/08/08 10:05:45;;;;;;;7.03;2.60;;;;;;;24.66;40.52;102247.48;1676950;85;21051;-91
2022/08/08 10:08:12;;;;;;;6.20;2.50;;;;;;;24.62;40.77;102248.86;1684496;85;21059;-91
2022/08/08 10:10:45;;;;;;;9.35;3.85;;;;;;;24.68;40.83;102246.55;1666415;85;21837;-91
2022/08/08 10:13:31;;;;;;;;;;;;;;;24.77;40.98;102245.58;1682879;85;21087;-91
2022/08/08 10:16:00;;;;;;;9.03;2.65;;;;;;;24.79;41.08;102246.45;1684514;84;20202;-90
2022/08/08 10:18:33;;;;;;;6.97;2.77;;;;;;;24.77;41.08;102238.39;1684941;85;21106;-81
2022/08/08 10:21:08;;;;;;;5.80;2.42;;;;;;;24.92;41.15;102241.83;1692250;84;21091;-89
2022/08/08 10:23:50;;;;;;;5.22;2.70;;;;;;;25.09;41.18;102245.68;1686490;83;21764;-81
2022/08/08 10:26:33;;;;;;;5.12;2.25;;;;;;;25.25;41.01;102243.74;1667112;83;21087;-81
2022/08/08 10:29:08;;;;;;;;;;;;;;;25.31;40.92;102243.66;1666882;85;21083;-89
2022/08/08 10:34:36;;;;;;;6.25;2.52;;;;;;;25.46;40.71;102238.52;1662506;85;21087;-90
2022/08/08 10:37:12;;;;;;;5.65;3.10;;;;;;;25.58;40.75;102236.55;1671254;85;21941;-88
2022/08/08 10:39:45;;;;;;;8.13;2.40;;;;;;;25.71;40.41;102236.36;1657737;84;21064;-90
2022/08/08 10:42:12;;;;;;;6.35;2.02;;;;;;;25.76;40.37;102239.42;1651472;85;21056;-89
2022/08/08 10:44:41;;;;;;;5.83;2.40;;;;;;;25.80;40.13;102241.16;1676408;85;21095;-89
2022/08/08 10:47:13;;;;;;;5.55;2.70;;;;;;;25.78;40.11;102243.45;1721205;83;21063;-90
2022/08/08 10:49:42;;;;;;;5.97;2.12;;;;;;;25.52;39.79;102239.31;1700042;83;21825;-90
2022/08/08 10:52:09;;;;;;;3.72;2.08;;;;;;;25.30;40.06;102238.73;1700407;82;21040;-89
2022/08/08 10:54:38;;;;;;;9.55;2.10;;;;;;;25.14;40.18;102245.18;1726585;83;21680;-89
2022/08/08 10:57:07;;;;;;;6.55;2.05;;;;;;;24.91;40.42;102240.03;1726172;83;22099;-89
2022/08/08 10:59:34;;;;;;;6.03;2.05;;;;;;;24.94;40.64;102237.31;1691260;84;21076;-90
2022/08/08 11:02:07;;;;;;;6.35;2.22;;;;;;;24.91;40.52;102239.61;1673081;84;22615;-89
2022/08/08 11:04:46;;;;;;;6.85;2.15;;;;;;;24.91;40.36;102231.52;1697253;84;21036;-90
2022/08/08 11:07:14;;;;;;;3.05;1.60;;;;;;;24.90;40.44;102240.50;1715118;82;21074;-90
2022/08/08 11:09:48;;;;;;;3.33;2.05;;;;;;;24.93;40.47;102235.55;1641973;86;21053;-91
2022/08/08 11:12:24;;;;;;;3.55;2.05;;;;;;;24.90;40.41;102236.92;1697112;84;21063;-90
2022/08/08 11:14:58;;;;;;;4.83;2.00;;;;;;;24.90;40.54;102231.53;1699895;82;22558;-80
2022/08/08 11:17:28;;;;;;;4.17;2.12;;;;;;;25.04;40.56;102232.28;1677154;84;21060;-91
2022/08/08 11:19:57;;;;;;;5.17;1.95;;;;;;;25.20;40.43;102228.46;1689460;84;21060;-90
2022/08/08 11:22:26;;;;;;;5.33;2.37;;;;;;;25.32;40.42;102230.17;1688339;84;21252;-80
2022/08/08 11:25:00;;;;;;;6.40;1.87;;;;;;;25.50;40.18;102226.78;1687654;83;21199;-90
2022/08/08 11:27:33;;;;;;;5.87;2.12;;;;;;;25.53;39.95;102228.09;1671922;84;21835;-90
2022/08/08 11:30:08;;;;;;;8.88;1.72;;;;;;;25.35;39.87;102226.53;1698062;84;21119;-89
2022/08/08 11:32:38;;;;;;;6.87;2.35;;;;;;;25.29;40.11;102214.02;1729982;82;21048;-80
2022/08/08 11:35:12;;;;;;;5.87;1.87;;;;;;;25.28;39.79;102233.78;1714299;82;21596;-90
2022/08/08 11:37:42;;;;;;;6.22;2.25;;;;;;;25.19;39.88;102231.20;1649540;85;21074;-90
2022/08/08 11:40:11;;;;;;;6.33;1.57;;;;;;;25.06;39.85;102230.45;1644431;86;21779;-80
2022/08/08 11:42:38;;;;;;;8.90;1.92;;;;;;;24.88;40.05;102218.08;1640182;86;21062;-81
2022/08/08 11:45:07;;;;;;;7.17;2.17;;;;;;;24.88;39.95;102224.81;1627221;86;21595;-91
2022/08/08 11:47:33;;;;;;;7.45;2.00;;;;;;;24.76;40.13;102224.97;1616334;86;21091;-90
2022/08/08 11:50:04;;;;;;;8.08;2.40;;;;;;;24.75;40.13;102229.89;1600559;85;21186;-81
2022/08/08 11:52:31;;;;;;;6.85;2.12;;;;;;;24.63;40.08;102225.55;1635814;86;21734;-92
2022/08/08 11:54:57;;;;;;;5.30;1.75;;;;;;;24.64;40.37;102236.73;1627227;87;21153;-91
2022/08/08 11:57:28;;;;;;;8.65;3.52;;;;;;;24.70;40.40;102233.08;1633098;86;21069;-81
2022/08/08 12:00:00;;;;;;;5.78;2.10;;;;;;;24.75;40.45;102234.82;1633455;86;21085;-82
2022/08/08 12:02:29;;;;;;;8.58;2.42;;;;;;;24.72;40.35;102232.61;1623949;85;21189;-81
2022/08/08 12:05:09;;;;;;;6.95;2.17;;;;;;;24.70;40.46;102241.16;1637510;85;21802;-81
2022/08/08 12:07:51;;;;;;;5.58;2.15;;;;;;;24.73;40.41;102231.25;1636957;86;21109;-81
2022/08/08 12:10:20;;;;;;;6.10;2.00;;;;;;;24.80;40.42;102228.94;1635879;86;21738;-81
2022/08/08 12:13:12;;;;;;;7.22;2.40;;;;;;;24.91;40.32;102231.95;1638015;86;21129;-90
2022/08/08 12:15:46;;;;;;;7.60;2.40;;;;;;;24.87;40.21;102234.25;1615445;87;21335;-82
2022/08/08 12:18:18;;;;;;;4.20;1.92;;;;;;;24.66;40.29;102236.72;1638270;87;21815;-82
2022/08/08 12:20:45;;;;;;;7.58;2.25;;;;;;;24.52;40.39;102233.72;1636697;86;21599;-90